Pagina principale
METAR-TAF:

METAR-TAF

Aeroporti :

Aeroporto di Genova-Sestri

Genova, Italia

latitudine: 44-25N, longitudine: 008-51E, altezza: 2 m

Osservazione

Il bollettino è stato emesso 38 minuti fa, alle 14:50 UTC
Vento 12 kt da sud-est
Temperature 22°C
Umidità 60%
Pressione 999 hPa
Visibilità 10 km o più
nessuna nube inferiore a 1500 m e nessun cumulonembo

METAR: LIMJ 271450Z 14012KT CAVOK 22/14 Q0999

Ora: 17:28 (15:28 UTC)

Previsione

Il bollettino è stato emesso 4 ore e 28 minuti fa, alle 11:00 UTC
Previsione valida dal 27 alle 12 UTC al 28 alle 12 UTC
Vento 10 kt da sud-est
Visibilità 10 km o più
nessuna nube inferiore a 1500 m e nessun cumulonembo
Evoluzione graduale
dal 27 alle 16 UTC al 27 alle 18 UTC
Vento 5 kt da direzioni variabili
Evoluzione graduale
dal 28 alle 08 UTC al 28 alle 10 UTC
Vento 10 kt da sud-est

TAF: LIMJ 271100Z 2712/2812 14010KT CAVOK BECMG 2716/2718 VRB05KT BECMG 2808/2810 13010KT

Osservazioni e previsioni meteorologiche di più di 4000 aeroporti (messaggi METAR e TAF).

Le stazioni disponibili sono rappresentate dai dischi gialli e rossi sulla carta.

Puntare il mouse per vedere il nome della stazione.

Clicca sopra per visualizzare le osservazioni e previsioni meteorologiche.

Per cambiare la mappa : fare clic sui pulsanti verdi con una croce nera per ingrandire, il pulsante verde con un trattino per diminuire, o sulla freccia verde per le mappe adiacenti.


METAR-TAF: